createdAt,value
2022-10-23T00:01:21.449Z,11.24
2022-10-23T00:03:50.668Z,11.23
2022-10-23T00:06:18.529Z,11.25
2022-10-23T00:08:47.720Z,11.20
2022-10-23T00:11:18.386Z,11.23
2022-10-23T00:13:46.174Z,11.17
2022-10-23T00:16:13.090Z,11.14
2022-10-23T00:18:40.490Z,11.30
2022-10-23T00:21:09.203Z,11.29
2022-10-23T00:23:36.452Z,11.16
2022-10-23T00:26:04.584Z,11.17
2022-10-23T00:28:31.651Z,11.15
2022-10-23T00:31:03.383Z,11.14
2022-10-23T00:33:30.368Z,11.08
2022-10-23T00:35:57.294Z,11.07
2022-10-23T00:38:24.371Z,11.02
2022-10-23T00:40:51.790Z,11.08
2022-10-23T00:43:20.997Z,11.03
2022-10-23T00:45:48.191Z,10.98
2022-10-23T00:48:16.159Z,10.99
2022-10-23T00:50:43.662Z,11.02
2022-10-23T00:53:12.814Z,10.92
2022-10-23T00:55:47.008Z,10.97
2022-10-23T00:58:19.586Z,10.96
2022-10-23T01:00:46.596Z,11.00
2022-10-23T01:03:16.061Z,10.97
2022-10-23T01:05:52.846Z,10.93
2022-10-23T01:08:24.702Z,10.86
2022-10-23T01:10:58.847Z,10.88
2022-10-23T01:13:56.731Z,10.83
2022-10-23T01:16:39.795Z,10.85
2022-10-23T01:19:22.281Z,10.27
2022-10-23T01:22:04.635Z,10.84
2022-10-23T01:24:58.239Z,10.83
2022-10-23T01:27:49.504Z,10.91
2022-10-23T01:30:17.948Z,10.92
2022-10-23T01:32:54.041Z,10.88
2022-10-23T01:35:28.443Z,10.87
2022-10-23T01:38:18.180Z,10.92
2022-10-23T01:41:11.998Z,10.89
2022-10-23T01:43:57.055Z,10.95
2022-10-23T01:46:28.341Z,10.98
2022-10-23T01:48:57.792Z,10.96
2022-10-23T01:51:27.265Z,10.97
2022-10-23T01:53:59.855Z,11.00
2022-10-23T01:56:35.106Z,10.97
2022-10-23T01:59:08.068Z,11.00
2022-10-23T02:01:42.781Z,11.04
2022-10-23T02:04:14.294Z,10.97
2022-10-23T02:06:41.687Z,10.97
2022-10-23T02:09:08.793Z,10.94
2022-10-23T02:11:42.651Z,10.97
2022-10-23T02:14:31.799Z,10.91
2022-10-23T02:17:08.806Z,10.88
2022-10-23T02:19:56.319Z,10.92
2022-10-23T02:22:50.132Z,10.91
2022-10-23T02:25:23.312Z,10.82
2022-10-23T02:27:57.008Z,10.85
2022-10-23T02:30:32.055Z,10.91
2022-10-23T02:33:09.694Z,10.87
2022-10-23T02:35:37.064Z,10.90
2022-10-23T02:38:47.335Z,10.90
2022-10-23T02:41:42.275Z,10.94
2022-10-23T02:44:35.142Z,10.92
2022-10-23T02:47:13.092Z,10.99
2022-10-23T02:49:58.873Z,11.06
2022-10-23T02:52:40.136Z,11.09
2022-10-23T02:55:06.999Z,11.12
2022-10-23T02:58:10.790Z,11.12
2022-10-23T03:00:52.694Z,11.17
2022-10-23T03:03:27.080Z,11.21
2022-10-23T03:05:54.774Z,11.23
2022-10-23T03:08:21.610Z,11.24
2022-10-23T03:13:21.858Z,11.33
2022-10-23T03:15:48.733Z,11.34
2022-10-23T03:18:15.582Z,11.34
2022-10-23T03:20:47.305Z,11.39
2022-10-23T03:23:15.498Z,11.37
2022-10-23T03:25:42.905Z,11.39
2022-10-23T03:28:11.305Z,11.49
2022-10-23T03:30:38.874Z,11.56
2022-10-23T03:33:05.728Z,11.59
2022-10-23T03:35:35.543Z,11.71
2022-10-23T03:38:02.563Z,11.83
2022-10-23T03:40:29.530Z,11.87
2022-10-23T03:42:56.648Z,12.04
2022-10-23T03:45:23.583Z,12.28
2022-10-23T03:47:51.830Z,12.54
2022-10-23T03:50:19.680Z,12.90
2022-10-23T03:52:46.649Z,13.19
2022-10-23T03:55:13.550Z,13.49
2022-10-23T03:57:40.555Z,13.74
2022-10-23T04:00:08.612Z,13.97
2022-10-23T04:02:43.842Z,14.30
2022-10-23T04:05:12.248Z,14.44
2022-10-23T04:07:41.080Z,14.64
2022-10-23T04:10:08.493Z,14.70
2022-10-23T04:12:35.403Z,14.83
2022-10-23T04:15:02.349Z,14.87
2022-10-23T04:17:29.365Z,14.92
2022-10-23T04:19:56.497Z,14.95
2022-10-23T04:22:25.941Z,14.87
2022-10-23T04:24:54.763Z,14.95
2022-10-23T04:27:22.102Z,14.93
2022-10-23T04:29:49.347Z,14.92
2022-10-23T04:32:16.583Z,14.97
2022-10-23T04:34:44.528Z,14.97
2022-10-23T04:37:11.443Z,14.87
2022-10-23T04:39:38.639Z,14.89
2022-10-23T04:42:05.629Z,14.90
2022-10-23T04:44:32.469Z,14.82
2022-10-23T04:46:59.446Z,14.89
2022-10-23T04:49:26.531Z,14.84
2022-10-23T04:52:11.363Z,14.78
2022-10-23T04:54:58.444Z,14.72
2022-10-23T04:58:00.719Z,14.80
2022-10-23T05:00:27.717Z,14.82
2022-10-23T05:02:56.667Z,14.79
2022-10-23T05:05:23.713Z,14.75
2022-10-23T05:07:53.248Z,14.80
2022-10-23T05:10:26.179Z,14.84
2022-10-23T05:13:02.682Z,14.84
2022-10-23T05:15:29.672Z,14.83
2022-10-23T05:18:10.790Z,14.98
2022-10-23T05:20:39.942Z,15.08
2022-10-23T05:23:11.862Z,15.12
2022-10-23T05:25:39.215Z,15.22
2022-10-23T05:28:15.790Z,15.35
2022-10-23T05:30:43.267Z,15.45
2022-10-23T05:33:11.370Z,15.51
2022-10-23T05:35:44.321Z,15.60
2022-10-23T05:38:14.499Z,15.61
2022-10-23T05:40:42.188Z,15.72
2022-10-23T05:43:14.248Z,15.70
2022-10-23T05:45:55.741Z,15.71
2022-10-23T05:48:51.864Z,15.71
2022-10-23T05:51:42.508Z,15.70
2022-10-23T05:54:29.689Z,15.68
2022-10-23T05:57:15.007Z,15.68
2022-10-23T05:59:49.030Z,15.66
2022-10-23T06:02:42.110Z,15.70
2022-10-23T06:05:31.140Z,15.79
2022-10-23T06:08:24.653Z,15.76
2022-10-23T06:10:52.101Z,15.82
2022-10-23T06:13:19.744Z,15.96
2022-10-23T06:15:48.661Z,15.97
2022-10-23T06:18:35.481Z,16.02
2022-10-23T06:21:09.005Z,16.04
2022-10-23T06:23:37.507Z,16.05
2022-10-23T06:26:23.275Z,16.05
2022-10-23T06:29:19.236Z,16.29
2022-10-23T06:31:47.159Z,16.30
2022-10-23T06:34:14.713Z,16.28
2022-10-23T06:36:42.776Z,16.29
2022-10-23T06:39:31.246Z,16.30
2022-10-23T06:42:12.999Z,16.38
2022-10-23T06:44:54.986Z,16.40
2022-10-23T06:47:41.229Z,16.54
2022-10-23T06:50:20.270Z,16.58
2022-10-23T06:52:47.986Z,16.68
2022-10-23T06:55:18.331Z,16.76
2022-10-23T06:57:46.433Z,16.83
2022-10-23T07:00:13.997Z,16.87
2022-10-23T07:02:50.086Z,16.89
2022-10-23T07:05:17.722Z,16.89
2022-10-23T07:07:44.687Z,16.97
2022-10-23T07:10:15.620Z,16.96
2022-10-23T07:12:51.009Z,17.11
2022-10-23T07:15:49.879Z,17.05
2022-10-23T07:18:23.817Z,17.07
2022-10-23T07:21:09.455Z,17.14
2022-10-23T07:23:38.655Z,17.06
2022-10-23T07:26:15.623Z,17.31
2022-10-23T07:28:45.050Z,17.40
2022-10-23T07:31:13.409Z,17.39
2022-10-23T07:33:59.083Z,17.51
2022-10-23T07:36:25.997Z,17.61
2022-10-23T07:38:52.827Z,17.65
2022-10-23T07:41:20.794Z,17.66
2022-10-23T07:43:48.021Z,17.68
2022-10-23T07:46:15.225Z,17.80
2022-10-23T07:48:42.756Z,17.85
2022-10-23T07:51:14.226Z,17.84
2022-10-23T07:53:45.033Z,17.88
2022-10-23T07:56:32.474Z,17.93
2022-10-23T07:59:13.400Z,18.02
2022-10-23T08:01:43.418Z,18.15
2022-10-23T08:04:10.827Z,18.30
2022-10-23T08:06:45.241Z,18.29
2022-10-23T08:09:12.408Z,18.25
2022-10-23T08:11:42.278Z,18.37
2022-10-23T08:14:10.995Z,18.34
2022-10-23T08:16:39.958Z,18.36
2022-10-23T08:19:14.788Z,18.40
2022-10-23T08:21:42.578Z,18.34
2022-10-23T08:24:14.718Z,18.65
2022-10-23T08:26:44.766Z,18.58
2022-10-23T08:29:13.369Z,18.52
2022-10-23T08:31:40.947Z,18.63
2022-10-23T08:34:27.088Z,18.69
2022-10-23T08:36:54.791Z,18.77
2022-10-23T08:39:25.587Z,18.81
2022-10-23T08:42:26.497Z,18.65
2022-10-23T08:45:08.030Z,18.76
2022-10-23T08:47:46.814Z,18.85
2022-10-23T08:50:47.202Z,18.88
2022-10-23T08:53:39.289Z,19.08
2022-10-23T08:56:18.485Z,19.14
2022-10-23T08:59:02.178Z,19.09
2022-10-23T09:01:29.091Z,19.29
2022-10-23T09:03:57.102Z,19.19
2022-10-23T09:06:45.908Z,19.29
2022-10-23T09:09:40.087Z,19.21
2022-10-23T09:12:21.335Z,19.33
2022-10-23T09:15:24.366Z,19.36
2022-10-23T09:18:15.994Z,19.38
2022-10-23T09:20:45.371Z,19.34
2022-10-23T09:23:21.170Z,19.44
2022-10-23T09:25:55.647Z,19.43
2022-10-23T09:28:32.358Z,19.50
2022-10-23T09:31:12.642Z,19.67
2022-10-23T09:33:40.699Z,19.77
2022-10-23T09:36:18.282Z,19.75
2022-10-23T09:38:52.538Z,19.84
2022-10-23T09:41:37.673Z,19.79
2022-10-23T09:44:07.439Z,19.90
2022-10-23T09:49:30.838Z,19.85
2022-10-23T09:52:06.168Z,20.01
2022-10-23T09:54:46.230Z,19.99
2022-10-23T09:57:40.884Z,20.09
2022-10-23T10:00:14.125Z,20.08
2022-10-23T10:02:44.266Z,20.05
2022-10-23T10:05:44.607Z,20.13
2022-10-23T10:08:35.473Z,20.24
2022-10-23T10:11:04.920Z,20.34
2022-10-23T10:13:37.754Z,20.25
2022-10-23T10:16:13.927Z,20.28
2022-10-23T10:18:49.235Z,20.26
2022-10-23T10:21:36.791Z,20.35
2022-10-23T10:24:15.675Z,20.42
2022-10-23T10:26:56.468Z,20.49
2022-10-23T10:29:30.994Z,20.53
2022-10-23T10:32:10.128Z,20.52
2022-10-23T10:35:03.031Z,20.54
2022-10-23T10:37:49.369Z,20.53
2022-10-23T10:40:28.739Z,20.50
2022-10-23T10:43:07.952Z,20.64
2022-10-23T10:45:38.872Z,20.68
2022-10-23T10:48:21.201Z,20.66
2022-10-23T10:51:14.014Z,20.76
2022-10-23T10:54:02.850Z,20.62
2022-10-23T10:56:35.947Z,20.72
2022-10-23T10:59:23.660Z,20.43
2022-10-23T11:02:03.936Z,20.88
2022-10-23T11:04:59.992Z,20.89
2022-10-23T11:07:41.362Z,20.98
2022-10-23T11:10:19.144Z,20.85
2022-10-23T11:12:48.237Z,20.87
2022-10-23T11:15:25.184Z,20.85
2022-10-23T11:17:58.667Z,20.99
2022-10-23T11:20:58.309Z,21.08
2022-10-23T11:24:40.694Z,21.05
2022-10-23T11:27:18.081Z,21.03
2022-10-23T11:30:22.343Z,21.04
2022-10-23T11:32:49.858Z,21.06
2022-10-23T11:35:30.848Z,21.10
2022-10-23T11:38:14.127Z,21.06
2022-10-23T11:43:47.646Z,21.09
2022-10-23T11:46:31.651Z,21.14
2022-10-23T11:49:02.633Z,21.26
2022-10-23T11:51:35.209Z,21.15
2022-10-23T11:54:27.466Z,21.27
2022-10-23T11:57:14.542Z,21.38
2022-10-23T11:59:54.051Z,21.24
2022-10-23T12:02:37.668Z,21.15
2022-10-23T12:05:08.843Z,21.22
2022-10-23T12:07:41.624Z,21.11
2022-10-23T12:10:29.972Z,21.12
2022-10-23T12:13:00.000Z,21.10
2022-10-23T12:15:28.206Z,21.17
2022-10-23T12:18:16.208Z,21.18
2022-10-23T12:20:57.288Z,21.20
2022-10-23T12:23:25.141Z,21.17
2022-10-23T12:26:07.768Z,21.20
2022-10-23T12:28:41.023Z,21.23
2022-10-23T12:31:25.868Z,21.26
2022-10-23T12:34:30.322Z,21.31
2022-10-23T12:37:26.135Z,21.37
2022-10-23T12:39:55.480Z,21.38
2022-10-23T12:42:27.918Z,21.29
2022-10-23T12:45:03.579Z,21.23
2022-10-23T12:47:31.039Z,21.29
2022-10-23T12:49:58.097Z,21.35
2022-10-23T12:52:25.399Z,21.51
2022-10-23T12:54:52.949Z,21.43
2022-10-23T12:57:22.753Z,21.51
2022-10-23T12:59:51.915Z,21.55
2022-10-23T13:02:24.397Z,21.42
2022-10-23T13:04:53.649Z,21.60
2022-10-23T13:07:26.604Z,21.74
2022-10-23T13:09:59.045Z,21.73
2022-10-23T13:12:32.952Z,21.77
2022-10-23T13:15:11.038Z,21.63
2022-10-23T13:17:47.371Z,21.76
2022-10-23T13:20:17.482Z,21.77
2022-10-23T13:22:50.882Z,21.70
2022-10-23T13:25:27.884Z,21.65
2022-10-23T13:28:27.137Z,21.58
2022-10-23T13:31:04.882Z,21.51
2022-10-23T13:33:33.935Z,21.52
2022-10-23T13:36:05.103Z,21.48
2022-10-23T13:38:37.652Z,21.29
2022-10-23T13:41:11.748Z,21.30
2022-10-23T13:43:38.898Z,21.31
2022-10-23T13:48:33.283Z,21.24
2022-10-23T13:51:15.162Z,21.19
2022-10-23T13:53:42.306Z,21.22
2022-10-23T13:56:14.463Z,20.93
2022-10-23T13:58:42.484Z,21.10
2022-10-23T14:01:32.656Z,21.03
2022-10-23T14:04:04.723Z,20.90
2022-10-23T14:06:32.861Z,20.78
2022-10-23T14:09:00.045Z,20.84
2022-10-23T14:11:27.490Z,20.80
2022-10-23T14:13:54.485Z,20.81
2022-10-23T14:16:22.030Z,20.77
2022-10-23T14:18:49.516Z,20.69
2022-10-23T14:21:21.458Z,20.62
2022-10-23T14:23:49.680Z,20.62
2022-10-23T14:26:22.511Z,20.61
2022-10-23T14:28:53.626Z,20.53
2022-10-23T14:31:21.148Z,20.40
2022-10-23T14:33:52.962Z,20.41
2022-10-23T14:36:20.764Z,20.43
2022-10-23T14:38:49.695Z,20.34
2022-10-23T14:41:18.915Z,20.30
2022-10-23T14:43:46.027Z,20.24
2022-10-23T14:46:14.804Z,20.25
2022-10-23T14:48:46.073Z,20.21
2022-10-23T14:51:26.539Z,20.08
2022-10-23T14:53:59.857Z,19.92
2022-10-23T14:56:30.645Z,19.96
2022-10-23T14:59:03.066Z,19.79
2022-10-23T15:01:31.418Z,19.82
2022-10-23T15:03:58.618Z,19.78
2022-10-23T15:06:28.556Z,19.64
2022-10-23T15:08:56.204Z,19.61
2022-10-23T15:11:25.673Z,19.56
2022-10-23T15:13:54.781Z,19.50
2022-10-23T15:16:23.115Z,19.37
2022-10-23T15:18:50.046Z,19.30
2022-10-23T15:21:17.447Z,19.22
2022-10-23T15:23:47.417Z,19.14
2022-10-23T15:26:21.496Z,19.08
2022-10-23T15:28:56.594Z,18.99
2022-10-23T15:31:41.290Z,18.87
2022-10-23T15:34:10.694Z,18.87
2022-10-23T15:36:37.884Z,18.76
2022-10-23T15:39:09.402Z,18.70
2022-10-23T15:41:38.265Z,18.65
2022-10-23T15:44:06.307Z,18.54
2022-10-23T15:46:33.311Z,18.48
2022-10-23T15:49:00.274Z,18.34
2022-10-23T15:51:27.815Z,18.37
2022-10-23T15:53:54.639Z,18.26
2022-10-23T15:56:21.657Z,18.13
2022-10-23T15:58:48.487Z,18.08
2022-10-23T16:01:15.660Z,18.01
2022-10-23T16:03:42.671Z,18.02
2022-10-23T16:06:13.599Z,17.93
2022-10-23T16:08:41.209Z,17.88
2022-10-23T16:11:20.999Z,17.78
2022-10-23T16:13:48.062Z,17.72
2022-10-23T16:16:16.330Z,17.17
2022-10-23T16:18:44.710Z,17.64
2022-10-23T16:21:25.946Z,17.54
2022-10-23T16:23:54.698Z,17.48
2022-10-23T16:26:22.375Z,17.30
2022-10-23T16:28:56.704Z,17.24
2022-10-23T16:31:24.677Z,17.30
2022-10-23T16:33:52.450Z,17.27
2022-10-23T16:36:20.872Z,17.21
2022-10-23T16:39:15.460Z,17.16
2022-10-23T16:42:00.769Z,17.06
2022-10-23T16:44:38.631Z,16.97
2022-10-23T16:47:06.371Z,16.88
2022-10-23T16:49:33.612Z,16.92
2022-10-23T16:52:00.869Z,16.89
2022-10-23T16:54:27.848Z,16.82
2022-10-23T16:56:55.157Z,16.75
2022-10-23T16:59:23.082Z,16.62
2022-10-23T17:01:49.991Z,16.59
2022-10-23T17:04:17.108Z,16.52
2022-10-23T17:06:44.144Z,16.42
2022-10-23T17:09:11.789Z,16.40
2022-10-23T17:11:40.384Z,16.29
2022-10-23T17:14:08.465Z,16.25
2022-10-23T17:16:43.028Z,16.15
2022-10-23T17:19:20.568Z,16.00
2022-10-23T17:21:55.514Z,15.77
2022-10-23T17:24:23.563Z,15.73
2022-10-23T17:26:50.700Z,15.66
2022-10-23T17:29:18.514Z,15.67
2022-10-23T17:31:48.365Z,15.63
2022-10-23T17:34:19.619Z,15.64
2022-10-23T17:36:48.191Z,15.52
2022-10-23T17:39:17.666Z,15.46
2022-10-23T17:41:45.315Z,15.39
2022-10-23T17:44:12.410Z,15.40
2022-10-23T17:46:39.648Z,15.38
2022-10-23T17:49:08.807Z,15.44
2022-10-23T17:51:36.875Z,15.38
2022-10-23T17:54:07.149Z,15.27
2022-10-23T17:56:37.018Z,15.18
2022-10-23T17:59:08.927Z,14.94
2022-10-23T18:01:36.436Z,15.11
2022-10-23T18:04:05.941Z,15.00
2022-10-23T18:06:42.069Z,15.00
2022-10-23T18:09:10.330Z,15.06
2022-10-23T18:11:45.194Z,15.09
2022-10-23T18:14:17.198Z,15.13
2022-10-23T18:16:46.027Z,15.10
2022-10-23T18:19:14.551Z,15.11
2022-10-23T18:21:41.648Z,15.03
2022-10-23T18:24:08.629Z,14.99
2022-10-23T18:26:37.825Z,14.99
2022-10-23T18:29:07.881Z,14.98
2022-10-23T18:31:37.578Z,14.89
2022-10-23T18:34:25.418Z,14.77
2022-10-23T18:36:56.625Z,14.70
2022-10-23T18:39:25.600Z,14.72
2022-10-23T18:41:56.109Z,14.58
2022-10-23T18:44:27.087Z,14.50
2022-10-23T18:46:55.230Z,14.34
2022-10-23T18:49:22.180Z,14.38
2022-10-23T18:51:49.927Z,14.34
2022-10-23T18:54:18.907Z,14.26
2022-10-23T18:56:46.515Z,14.36
2022-10-23T18:59:16.834Z,14.34
2022-10-23T19:01:44.238Z,14.32
2022-10-23T19:04:14.196Z,14.26
2022-10-23T19:06:44.805Z,14.23
2022-10-23T19:09:14.060Z,14.19
2022-10-23T19:11:42.519Z,14.09
2022-10-23T19:14:09.885Z,14.12
2022-10-23T19:16:46.342Z,14.09
2022-10-23T19:19:26.679Z,13.99
2022-10-23T19:21:55.017Z,13.87
2022-10-23T19:24:45.626Z,13.82
2022-10-23T19:27:12.765Z,13.73
2022-10-23T19:29:42.872Z,13.79
2022-10-23T19:32:10.026Z,13.73
2022-10-23T19:34:37.487Z,13.72
2022-10-23T19:37:04.617Z,13.66
2022-10-23T19:39:31.777Z,13.62
2022-10-23T19:42:24.134Z,13.60
2022-10-23T19:44:54.046Z,13.51
2022-10-23T19:47:23.783Z,13.48
2022-10-23T19:49:52.130Z,13.47
2022-10-23T19:52:22.891Z,13.44
2022-10-23T19:54:51.258Z,13.36
2022-10-23T19:57:22.468Z,13.35
2022-10-23T19:59:57.170Z,13.31
2022-10-23T20:02:24.417Z,13.26
2022-10-23T20:04:51.564Z,13.24
2022-10-23T20:07:18.615Z,13.21
2022-10-23T20:09:45.626Z,13.20
2022-10-23T20:12:12.491Z,13.19
2022-10-23T20:14:39.358Z,13.08
2022-10-23T20:17:06.664Z,13.05
2022-10-23T20:19:34.455Z,13.04
2022-10-23T20:22:04.251Z,13.06
2022-10-23T20:24:31.710Z,13.12
2022-10-23T20:26:58.954Z,13.17
2022-10-23T20:29:26.055Z,13.14
2022-10-23T20:31:53.199Z,13.06
2022-10-23T20:34:20.432Z,12.89
2022-10-23T20:36:51.164Z,13.03
2022-10-23T20:39:26.651Z,12.99
2022-10-23T20:41:55.390Z,12.91
2022-10-23T20:44:23.332Z,12.97
2022-10-23T20:46:51.087Z,12.97
2022-10-23T20:49:19.175Z,12.95
2022-10-23T20:51:54.829Z,12.90
2022-10-23T20:54:28.741Z,12.83
2022-10-23T20:56:57.235Z,12.77
2022-10-23T20:59:24.964Z,12.72
2022-10-23T21:01:53.559Z,12.62
2022-10-23T21:04:23.566Z,12.59
2022-10-23T21:07:11.650Z,12.45
2022-10-23T21:09:40.183Z,12.48
2022-10-23T21:12:07.829Z,12.43
2022-10-23T21:14:35.261Z,12.41
2022-10-23T21:17:02.256Z,12.33
2022-10-23T21:19:29.092Z,12.21
2022-10-23T21:21:56.170Z,12.24
2022-10-23T21:24:24.204Z,12.17
2022-10-23T21:26:51.135Z,12.06
2022-10-23T21:29:19.502Z,11.98
2022-10-23T21:31:59.427Z,12.04
2022-10-23T21:34:27.409Z,12.05
2022-10-23T21:37:11.861Z,11.92
2022-10-23T21:39:40.677Z,11.77
2022-10-23T21:42:07.591Z,11.59
2022-10-23T21:44:34.522Z,11.68
2022-10-23T21:47:01.495Z,11.57
2022-10-23T21:49:28.554Z,11.60
2022-10-23T21:51:55.446Z,11.56
2022-10-23T21:54:22.706Z,11.58
2022-10-23T21:56:53.742Z,11.53
2022-10-23T21:59:22.519Z,11.45
2022-10-23T22:01:49.862Z,11.47
2022-10-23T22:04:18.944Z,11.48
2022-10-23T22:06:47.621Z,11.44
2022-10-23T22:09:18.962Z,11.42
2022-10-23T22:11:45.795Z,11.38
2022-10-23T22:14:12.790Z,11.35
2022-10-23T22:16:39.649Z,11.25
2022-10-23T22:19:06.768Z,11.13
2022-10-23T22:21:33.924Z,11.09
2022-10-23T22:24:01.130Z,11.12
2022-10-23T22:26:35.876Z,11.13
2022-10-23T22:29:07.568Z,11.03
2022-10-23T22:31:35.848Z,10.92
2022-10-23T22:34:18.488Z,10.99
2022-10-23T22:36:53.377Z,10.94
2022-10-23T22:39:20.620Z,10.91
2022-10-23T22:41:47.938Z,10.93
2022-10-23T22:44:15.265Z,10.79
2022-10-23T22:46:43.115Z,10.95
2022-10-23T22:49:10.692Z,10.91
2022-10-23T22:51:39.827Z,10.88
2022-10-23T22:54:07.292Z,10.77
2022-10-23T22:56:34.730Z,10.89
2022-10-23T22:59:02.433Z,10.86
2022-10-23T23:01:31.057Z,10.78
2022-10-23T23:04:08.620Z,10.83
2022-10-23T23:06:46.080Z,10.68
2022-10-23T23:09:17.850Z,10.68
2022-10-23T23:11:51.927Z,10.66
2022-10-23T23:14:23.542Z,10.64
2022-10-23T23:16:53.222Z,10.67
2022-10-23T23:19:20.538Z,10.61
2022-10-23T23:21:47.346Z,10.59
2022-10-23T23:24:14.230Z,10.59
2022-10-23T23:26:41.237Z,10.52
2022-10-23T23:29:08.109Z,10.45
2022-10-23T23:31:35.049Z,10.41
2022-10-23T23:34:01.889Z,10.35
2022-10-23T23:36:28.951Z,10.32
2022-10-23T23:38:57.675Z,10.32
2022-10-23T23:41:25.493Z,10.34
2022-10-23T23:43:55.433Z,10.34
2022-10-23T23:46:22.767Z,10.33
2022-10-23T23:48:50.146Z,10.30
2022-10-23T23:51:20.107Z,10.21
2022-10-23T23:53:47.839Z,10.15
2022-10-23T23:56:15.349Z,10.12
2022-10-23T23:58:42.338Z,10.15
